sensor_id;sensor_type;location;lat;lon;timestamp;P1;durP1;ratioP1;P2;durP2;ratioP2
9218;SDS011;4644;48.858;9.184;2023-04-15T00:00:36;9.80;;;4.20;;
9218;SDS011;4644;48.858;9.184;2023-04-15T00:03:04;6.07;;;4.00;;
9218;SDS011;4644;48.858;9.184;2023-04-15T00:05:32;5.93;;;4.00;;
9218;SDS011;4644;48.858;9.184;2023-04-15T00:07:59;6.17;;;3.90;;
9218;SDS011;4644;48.858;9.184;2023-04-15T00:10:27;7.20;;;3.67;;
9218;SDS011;4644;48.858;9.184;2023-04-15T00:12:54;9.07;;;4.10;;
9218;SDS011;4644;48.858;9.184;2023-04-15T00:15:21;5.50;;;3.87;;
9218;SDS011;4644;48.858;9.184;2023-04-15T00:17:49;10.67;;;4.50;;
9218;SDS011;4644;48.858;9.184;2023-04-15T00:20:18;8.13;;;4.60;;
9218;SDS011;4644;48.858;9.184;2023-04-15T00:22:45;6.53;;;3.90;;
9218;SDS011;4644;48.858;9.184;2023-04-15T00:25:12;5.47;;;4.20;;
9218;SDS011;4644;48.858;9.184;2023-04-15T00:27:40;6.10;;;4.00;;
9218;SDS011;4644;48.858;9.184;2023-04-15T00:30:08;7.03;;;3.83;;
9218;SDS011;4644;48.858;9.184;2023-04-15T00:32:36;8.13;;;4.10;;
9218;SDS011;4644;48.858;9.184;2023-04-15T00:35:03;10.10;;;4.23;;
9218;SDS011;4644;48.858;9.184;2023-04-15T00:37:32;7.03;;;4.07;;
9218;SDS011;4644;48.858;9.184;2023-04-15T00:40:00;11.87;;;4.17;;
9218;SDS011;4644;48.858;9.184;2023-04-15T00:42:29;8.43;;;4.70;;
9218;SDS011;4644;48.858;9.184;2023-04-15T00:44:56;5.47;;;3.63;;
9218;SDS011;4644;48.858;9.184;2023-04-15T00:47:23;8.37;;;4.33;;
9218;SDS011;4644;48.858;9.184;2023-04-15T00:49:51;8.87;;;4.37;;
9218;SDS011;4644;48.858;9.184;2023-04-15T00:52:18;5.73;;;4.13;;
9218;SDS011;4644;48.858;9.184;2023-04-15T00:54:46;7.33;;;4.23;;
9218;SDS011;4644;48.858;9.184;2023-04-15T00:57:15;9.47;;;4.83;;
9218;SDS011;4644;48.858;9.184;2023-04-15T00:59:42;6.83;;;4.20;;
9218;SDS011;4644;48.858;9.184;2023-04-15T01:02:09;9.27;;;4.57;;
9218;SDS011;4644;48.858;9.184;2023-04-15T01:04:36;9.40;;;4.37;;
9218;SDS011;4644;48.858;9.184;2023-04-15T01:07:03;7.13;;;4.50;;
9218;SDS011;4644;48.858;9.184;2023-04-15T01:09:31;10.70;;;4.47;;
9218;SDS011;4644;48.858;9.184;2023-04-15T01:11:59;9.07;;;4.97;;
9218;SDS011;4644;48.858;9.184;2023-04-15T01:14:28;5.63;;;4.40;;
9218;SDS011;4644;48.858;9.184;2023-04-15T01:16:55;8.93;;;4.60;;
9218;SDS011;4644;48.858;9.184;2023-04-15T01:19:22;9.73;;;4.50;;
9218;SDS011;4644;48.858;9.184;2023-04-15T01:21:52;9.33;;;4.50;;
9218;SDS011;4644;48.858;9.184;2023-04-15T01:24:20;8.13;;;4.37;;
9218;SDS011;4644;48.858;9.184;2023-04-15T01:26:49;7.43;;;4.40;;
9218;SDS011;4644;48.858;9.184;2023-04-15T01:29:16;10.00;;;4.30;;
9218;SDS011;4644;48.858;9.184;2023-04-15T01:31:48;6.00;;;3.80;;
9218;SDS011;4644;48.858;9.184;2023-04-15T01:34:17;7.93;;;4.10;;
9218;SDS011;4644;48.858;9.184;2023-04-15T01:36:44;7.57;;;4.10;;
9218;SDS011;4644;48.858;9.184;2023-04-15T01:39:11;7.77;;;4.50;;
9218;SDS011;4644;48.858;9.184;2023-04-15T01:41:38;7.47;;;3.80;;
9218;SDS011;4644;48.858;9.184;2023-04-15T01:44:07;8.00;;;4.37;;
9218;SDS011;4644;48.858;9.184;2023-04-15T01:46:35;7.70;;;4.27;;
9218;SDS011;4644;48.858;9.184;2023-04-15T01:49:03;7.23;;;4.30;;
9218;SDS011;4644;48.858;9.184;2023-04-15T01:51:30;6.13;;;4.37;;
9218;SDS011;4644;48.858;9.184;2023-04-15T01:53:57;5.90;;;4.10;;
9218;SDS011;4644;48.858;9.184;2023-04-15T01:56:24;8.50;;;4.50;;
9218;SDS011;4644;48.858;9.184;2023-04-15T01:58:52;7.03;;;4.73;;
9218;SDS011;4644;48.858;9.184;2023-04-15T02:01:20;5.93;;;4.00;;
9218;SDS011;4644;48.858;9.184;2023-04-15T02:03:47;7.30;;;4.43;;
9218;SDS011;4644;48.858;9.184;2023-04-15T02:06:14;5.80;;;4.20;;
9218;SDS011;4644;48.858;9.184;2023-04-15T02:08:42;9.93;;;5.03;;
9218;SDS011;4644;48.858;9.184;2023-04-15T02:11:10;6.67;;;4.57;;
9218;SDS011;4644;48.858;9.184;2023-04-15T02:13:37;7.00;;;4.47;;
9218;SDS011;4644;48.858;9.184;2023-04-15T02:16:04;5.87;;;4.47;;
9218;SDS011;4644;48.858;9.184;2023-04-15T02:18:43;11.47;;;4.90;;
9218;SDS011;4644;48.858;9.184;2023-04-15T02:21:10;8.40;;;4.90;;
9218;SDS011;4644;48.858;9.184;2023-04-15T02:23:38;9.70;;;4.60;;
9218;SDS011;4644;48.858;9.184;2023-04-15T02:26:05;10.23;;;4.53;;
9218;SDS011;4644;48.858;9.184;2023-04-15T02:28:32;8.27;;;4.43;;
9218;SDS011;4644;48.858;9.184;2023-04-15T02:30:59;5.37;;;4.40;;
9218;SDS011;4644;48.858;9.184;2023-04-15T02:33:26;6.47;;;3.70;;
9218;SDS011;4644;48.858;9.184;2023-04-15T02:35:54;6.87;;;4.00;;
9218;SDS011;4644;48.858;9.184;2023-04-15T02:38:21;9.23;;;4.33;;
9218;SDS011;4644;48.858;9.184;2023-04-15T02:40:48;6.60;;;3.73;;
9218;SDS011;4644;48.858;9.184;2023-04-15T02:43:16;7.20;;;3.77;;
9218;SDS011;4644;48.858;9.184;2023-04-15T02:45:43;4.93;;;3.80;;
9218;SDS011;4644;48.858;9.184;2023-04-15T02:48:11;5.07;;;4.07;;
9218;SDS011;4644;48.858;9.184;2023-04-15T02:50:41;6.23;;;4.40;;
9218;SDS011;4644;48.858;9.184;2023-04-15T02:53:09;9.07;;;4.77;;
9218;SDS011;4644;48.858;9.184;2023-04-15T02:55:37;6.27;;;4.33;;
9218;SDS011;4644;48.858;9.184;2023-04-15T02:58:04;7.77;;;3.90;;
9218;SDS011;4644;48.858;9.184;2023-04-15T03:00:31;7.13;;;4.00;;
9218;SDS011;4644;48.858;9.184;2023-04-15T03:03:00;6.67;;;3.97;;
9218;SDS011;4644;48.858;9.184;2023-04-15T03:05:29;6.73;;;4.30;;
9218;SDS011;4644;48.858;9.184;2023-04-15T03:07:56;3.93;;;3.53;;
9218;SDS011;4644;48.858;9.184;2023-04-15T03:10:26;6.00;;;3.77;;
9218;SDS011;4644;48.858;9.184;2023-04-15T03:12:53;7.53;;;4.10;;
9218;SDS011;4644;48.858;9.184;2023-04-15T03:15:20;7.13;;;4.30;;
9218;SDS011;4644;48.858;9.184;2023-04-15T03:17:47;4.77;;;4.10;;
9218;SDS011;4644;48.858;9.184;2023-04-15T03:20:15;7.23;;;4.80;;
9218;SDS011;4644;48.858;9.184;2023-04-15T03:22:42;8.53;;;4.27;;
9218;SDS011;4644;48.858;9.184;2023-04-15T03:25:09;8.20;;;4.73;;
9218;SDS011;4644;48.858;9.184;2023-04-15T03:27:38;6.60;;;4.03;;
9218;SDS011;4644;48.858;9.184;2023-04-15T03:30:05;6.50;;;3.87;;
9218;SDS011;4644;48.858;9.184;2023-04-15T03:32:34;8.97;;;4.50;;
9218;SDS011;4644;48.858;9.184;2023-04-15T03:35:01;10.17;;;4.73;;
9218;SDS011;4644;48.858;9.184;2023-04-15T03:37:28;9.43;;;4.80;;
9218;SDS011;4644;48.858;9.184;2023-04-15T03:39:55;7.20;;;4.23;;
9218;SDS011;4644;48.858;9.184;2023-04-15T03:42:22;16.43;;;5.53;;
9218;SDS011;4644;48.858;9.184;2023-04-15T03:44:51;7.47;;;4.70;;
9218;SDS011;4644;48.858;9.184;2023-04-15T03:47:18;6.80;;;4.63;;
9218;SDS011;4644;48.858;9.184;2023-04-15T03:49:45;7.50;;;4.50;;
9218;SDS011;4644;48.858;9.184;2023-04-15T03:52:12;7.63;;;4.67;;
9218;SDS011;4644;48.858;9.184;2023-04-15T03:54:39;7.80;;;4.60;;
9218;SDS011;4644;48.858;9.184;2023-04-15T03:57:06;9.57;;;4.63;;
9218;SDS011;4644;48.858;9.184;2023-04-15T03:59:33;6.03;;;4.80;;
9218;SDS011;4644;48.858;9.184;2023-04-15T04:02:01;8.53;;;4.10;;
9218;SDS011;4644;48.858;9.184;2023-04-15T04:04:28;7.20;;;4.40;;
9218;SDS011;4644;48.858;9.184;2023-04-15T04:06:55;8.17;;;4.60;;
9218;SDS011;4644;48.858;9.184;2023-04-15T04:09:22;10.80;;;4.60;;
9218;SDS011;4644;48.858;9.184;2023-04-15T04:11:49;6.87;;;4.53;;
9218;SDS011;4644;48.858;9.184;2023-04-15T04:14:16;7.73;;;4.23;;
9218;SDS011;4644;48.858;9.184;2023-04-15T04:16:43;7.90;;;4.77;;
9218;SDS011;4644;48.858;9.184;2023-04-15T04:19:12;7.80;;;4.60;;
9218;SDS011;4644;48.858;9.184;2023-04-15T04:21:43;8.70;;;4.80;;
9218;SDS011;4644;48.858;9.184;2023-04-15T04:24:10;9.20;;;5.20;;
9218;SDS011;4644;48.858;9.184;2023-04-15T04:26:37;6.30;;;4.50;;
9218;SDS011;4644;48.858;9.184;2023-04-15T04:29:04;9.60;;;4.93;;
9218;SDS011;4644;48.858;9.184;2023-04-15T04:31:32;8.07;;;4.40;;
9218;SDS011;4644;48.858;9.184;2023-04-15T04:33:59;7.43;;;4.80;;
9218;SDS011;4644;48.858;9.184;2023-04-15T04:36:27;9.37;;;4.97;;
9218;SDS011;4644;48.858;9.184;2023-04-15T04:38:54;7.93;;;5.03;;
9218;SDS011;4644;48.858;9.184;2023-04-15T04:41:21;8.67;;;4.60;;
9218;SDS011;4644;48.858;9.184;2023-04-15T04:43:48;11.03;;;5.07;;
9218;SDS011;4644;48.858;9.184;2023-04-15T04:46:15;6.70;;;5.10;;
9218;SDS011;4644;48.858;9.184;2023-04-15T04:48:42;8.40;;;5.23;;
9218;SDS011;4644;48.858;9.184;2023-04-15T04:51:09;8.27;;;4.50;;
9218;SDS011;4644;48.858;9.184;2023-04-15T04:53:38;7.27;;;5.33;;
9218;SDS011;4644;48.858;9.184;2023-04-15T04:56:05;9.47;;;5.10;;
9218;SDS011;4644;48.858;9.184;2023-04-15T04:58:32;10.10;;;5.27;;
9218;SDS011;4644;48.858;9.184;2023-04-15T05:00:59;8.93;;;5.20;;
9218;SDS011;4644;48.858;9.184;2023-04-15T05:03:27;11.27;;;6.10;;
9218;SDS011;4644;48.858;9.184;2023-04-15T05:05:54;7.67;;;5.10;;
9218;SDS011;4644;48.858;9.184;2023-04-15T05:08:21;10.93;;;5.80;;
9218;SDS011;4644;48.858;9.184;2023-04-15T05:10:49;10.70;;;5.87;;
9218;SDS011;4644;48.858;9.184;2023-04-15T05:13:16;7.43;;;5.23;;
9218;SDS011;4644;48.858;9.184;2023-04-15T05:15:45;11.90;;;5.77;;
9218;SDS011;4644;48.858;9.184;2023-04-15T05:18:12;12.47;;;5.90;;
9218;SDS011;4644;48.858;9.184;2023-04-15T05:20:39;11.87;;;5.47;;
9218;SDS011;4644;48.858;9.184;2023-04-15T05:23:06;11.97;;;5.43;;
9218;SDS011;4644;48.858;9.184;2023-04-15T05:25:33;7.37;;;5.17;;
9218;SDS011;4644;48.858;9.184;2023-04-15T05:28:02;8.70;;;5.90;;
9218;SDS011;4644;48.858;9.184;2023-04-15T05:30:29;9.33;;;5.70;;
9218;SDS011;4644;48.858;9.184;2023-04-15T05:32:56;12.10;;;6.53;;
9218;SDS011;4644;48.858;9.184;2023-04-15T05:35:23;12.20;;;6.53;;
9218;SDS011;4644;48.858;9.184;2023-04-15T05:37:50;11.97;;;6.40;;
9218;SDS011;4644;48.858;9.184;2023-04-15T05:40:17;11.33;;;6.27;;
9218;SDS011;4644;48.858;9.184;2023-04-15T05:42:44;11.73;;;6.50;;
9218;SDS011;4644;48.858;9.184;2023-04-15T05:45:13;8.60;;;6.27;;
9218;SDS011;4644;48.858;9.184;2023-04-15T05:47:40;10.90;;;5.67;;
9218;SDS011;4644;48.858;9.184;2023-04-15T05:50:07;9.87;;;5.53;;
9218;SDS011;4644;48.858;9.184;2023-04-15T05:52:34;12.87;;;5.97;;
9218;SDS011;4644;48.858;9.184;2023-04-15T05:55:02;10.30;;;5.50;;
9218;SDS011;4644;48.858;9.184;2023-04-15T05:57:29;7.50;;;5.50;;
9218;SDS011;4644;48.858;9.184;2023-04-15T05:59:56;6.90;;;5.23;;
9218;SDS011;4644;48.858;9.184;2023-04-15T06:02:25;9.50;;;5.63;;
9218;SDS011;4644;48.858;9.184;2023-04-15T06:04:52;10.77;;;5.23;;
9218;SDS011;4644;48.858;9.184;2023-04-15T06:07:19;9.77;;;5.40;;
9218;SDS011;4644;48.858;9.184;2023-04-15T06:09:46;7.87;;;5.03;;
9218;SDS011;4644;48.858;9.184;2023-04-15T06:12:13;8.07;;;4.90;;
9218;SDS011;4644;48.858;9.184;2023-04-15T06:14:41;9.27;;;5.00;;
9218;SDS011;4644;48.858;9.184;2023-04-15T06:17:08;10.97;;;6.03;;
9218;SDS011;4644;48.858;9.184;2023-04-15T06:19:36;8.07;;;4.83;;
9218;SDS011;4644;48.858;9.184;2023-04-15T06:22:04;9.67;;;5.17;;
9218;SDS011;4644;48.858;9.184;2023-04-15T06:24:32;9.97;;;5.03;;
9218;SDS011;4644;48.858;9.184;2023-04-15T06:27:01;9.57;;;4.93;;
9218;SDS011;4644;48.858;9.184;2023-04-15T06:29:28;10.70;;;5.20;;
9218;SDS011;4644;48.858;9.184;2023-04-15T06:31:55;9.63;;;5.20;;
9218;SDS011;4644;48.858;9.184;2023-04-15T06:34:22;7.97;;;5.27;;
9218;SDS011;4644;48.858;9.184;2023-04-15T06:36:50;9.67;;;5.33;;
9218;SDS011;4644;48.858;9.184;2023-04-15T06:39:18;7.87;;;4.83;;
9218;SDS011;4644;48.858;9.184;2023-04-15T06:41:45;9.23;;;4.73;;
9218;SDS011;4644;48.858;9.184;2023-04-15T06:44:12;8.23;;;4.63;;
9218;SDS011;4644;48.858;9.184;2023-04-15T06:46:40;9.13;;;5.10;;
9218;SDS011;4644;48.858;9.184;2023-04-15T06:49:07;6.67;;;4.30;;
9218;SDS011;4644;48.858;9.184;2023-04-15T06:51:34;11.97;;;4.90;;
9218;SDS011;4644;48.858;9.184;2023-04-15T06:54:03;8.03;;;4.47;;
9218;SDS011;4644;48.858;9.184;2023-04-15T06:56:30;7.13;;;4.87;;
9218;SDS011;4644;48.858;9.184;2023-04-15T06:58:59;5.03;;;3.63;;
9218;SDS011;4644;48.858;9.184;2023-04-15T07:01:26;5.30;;;3.77;;
9218;SDS011;4644;48.858;9.184;2023-04-15T07:03:53;7.07;;;3.87;;
9218;SDS011;4644;48.858;9.184;2023-04-15T07:06:21;8.03;;;4.17;;
9218;SDS011;4644;48.858;9.184;2023-04-15T07:08:48;6.57;;;4.43;;
9218;SDS011;4644;48.858;9.184;2023-04-15T07:11:16;9.07;;;4.27;;
9218;SDS011;4644;48.858;9.184;2023-04-15T07:13:43;7.17;;;4.40;;
9218;SDS011;4644;48.858;9.184;2023-04-15T07:16:10;8.63;;;3.97;;
9218;SDS011;4644;48.858;9.184;2023-04-15T07:18:37;10.20;;;4.40;;
9218;SDS011;4644;48.858;9.184;2023-04-15T07:21:04;4.63;;;3.30;;
9218;SDS011;4644;48.858;9.184;2023-04-15T07:23:31;5.80;;;3.80;;
9218;SDS011;4644;48.858;9.184;2023-04-15T07:25:58;6.37;;;3.47;;
9218;SDS011;4644;48.858;9.184;2023-04-15T07:28:27;8.03;;;3.77;;
9218;SDS011;4644;48.858;9.184;2023-04-15T07:30:54;4.67;;;3.63;;
9218;SDS011;4644;48.858;9.184;2023-04-15T07:33:21;6.17;;;3.90;;
9218;SDS011;4644;48.858;9.184;2023-04-15T07:35:48;6.47;;;4.20;;
9218;SDS011;4644;48.858;9.184;2023-04-15T07:38:15;6.13;;;4.00;;
9218;SDS011;4644;48.858;9.184;2023-04-15T07:40:42;7.73;;;4.37;;
9218;SDS011;4644;48.858;9.184;2023-04-15T07:43:09;7.17;;;4.33;;
9218;SDS011;4644;48.858;9.184;2023-04-15T07:45:39;8.63;;;4.23;;
9218;SDS011;4644;48.858;9.184;2023-04-15T07:48:06;5.33;;;3.67;;
9218;SDS011;4644;48.858;9.184;2023-04-15T07:50:33;9.23;;;4.47;;
9218;SDS011;4644;48.858;9.184;2023-04-15T07:53:00;5.17;;;3.93;;
9218;SDS011;4644;48.858;9.184;2023-04-15T07:55:27;6.60;;;3.80;;
9218;SDS011;4644;48.858;9.184;2023-04-15T07:57:54;5.07;;;3.90;;
9218;SDS011;4644;48.858;9.184;2023-04-15T08:00:22;6.83;;;3.70;;
9218;SDS011;4644;48.858;9.184;2023-04-15T08:02:50;5.13;;;3.57;;
9218;SDS011;4644;48.858;9.184;2023-04-15T08:05:18;8.10;;;3.80;;
9218;SDS011;4644;48.858;9.184;2023-04-15T08:07:45;11.33;;;3.40;;
9218;SDS011;4644;48.858;9.184;2023-04-15T08:10:12;8.30;;;4.20;;
9218;SDS011;4644;48.858;9.184;2023-04-15T08:12:40;6.93;;;3.10;;
9218;SDS011;4644;48.858;9.184;2023-04-15T08:15:07;5.23;;;3.80;;
9218;SDS011;4644;48.858;9.184;2023-04-15T08:17:36;7.43;;;3.97;;
9218;SDS011;4644;48.858;9.184;2023-04-15T08:20:06;5.40;;;3.50;;
9218;SDS011;4644;48.858;9.184;2023-04-15T08:22:33;9.20;;;4.47;;
9218;SDS011;4644;48.858;9.184;2023-04-15T08:25:08;6.47;;;3.70;;
9218;SDS011;4644;48.858;9.184;2023-04-15T08:27:38;3.83;;;2.70;;
9218;SDS011;4644;48.858;9.184;2023-04-15T08:30:06;6.73;;;3.10;;
9218;SDS011;4644;48.858;9.184;2023-04-15T08:32:34;5.07;;;3.20;;
9218;SDS011;4644;48.858;9.184;2023-04-15T08:35:02;5.13;;;3.17;;
9218;SDS011;4644;48.858;9.184;2023-04-15T08:37:30;5.70;;;3.30;;
9218;SDS011;4644;48.858;9.184;2023-04-15T08:40:00;5.57;;;3.70;;
9218;SDS011;4644;48.858;9.184;2023-04-15T08:42:29;7.93;;;3.37;;
9218;SDS011;4644;48.858;9.184;2023-04-15T08:44:58;4.57;;;3.03;;
9218;SDS011;4644;48.858;9.184;2023-04-15T08:47:25;5.27;;;3.17;;
9218;SDS011;4644;48.858;9.184;2023-04-15T08:49:56;5.47;;;3.33;;
9218;SDS011;4644;48.858;9.184;2023-04-15T08:52:24;7.23;;;3.57;;
9218;SDS011;4644;48.858;9.184;2023-04-15T08:54:53;5.23;;;3.47;;
9218;SDS011;4644;48.858;9.184;2023-04-15T08:57:23;5.60;;;3.23;;
9218;SDS011;4644;48.858;9.184;2023-04-15T08:59:52;5.57;;;2.73;;
9218;SDS011;4644;48.858;9.184;2023-04-15T09:02:21;3.90;;;2.93;;
9218;SDS011;4644;48.858;9.184;2023-04-15T09:04:49;4.37;;;3.00;;
9218;SDS011;4644;48.858;9.184;2023-04-15T09:07:16;5.03;;;2.80;;
9218;SDS011;4644;48.858;9.184;2023-04-15T09:09:43;9.13;;;3.20;;
9218;SDS011;4644;48.858;9.184;2023-04-15T09:13:52;7.47;;;2.90;;
9218;SDS011;4644;48.858;9.184;2023-04-15T09:16:19;3.87;;;2.47;;
9218;SDS011;4644;48.858;9.184;2023-04-15T09:18:46;3.53;;;2.60;;
9218;SDS011;4644;48.858;9.184;2023-04-15T09:21:15;3.97;;;2.23;;
9218;SDS011;4644;48.858;9.184;2023-04-15T09:23:53;4.47;;;2.33;;
9218;SDS011;4644;48.858;9.184;2023-04-15T09:26:29;8.47;;;3.00;;
9218;SDS011;4644;48.858;9.184;2023-04-15T09:29:02;3.10;;;2.57;;
9218;SDS011;4644;48.858;9.184;2023-04-15T09:31:31;4.23;;;2.63;;
9218;SDS011;4644;48.858;9.184;2023-04-15T09:33:58;5.20;;;2.20;;
9218;SDS011;4644;48.858;9.184;2023-04-15T09:36:25;3.20;;;2.10;;
9218;SDS011;4644;48.858;9.184;2023-04-15T09:38:54;2.77;;;1.90;;
9218;SDS011;4644;48.858;9.184;2023-04-15T09:41:22;2.73;;;1.80;;
9218;SDS011;4644;48.858;9.184;2023-04-15T09:43:50;3.50;;;2.50;;
9218;SDS011;4644;48.858;9.184;2023-04-15T09:46:19;5.47;;;2.27;;
9218;SDS011;4644;48.858;9.184;2023-04-15T09:48:45;2.73;;;2.07;;
9218;SDS011;4644;48.858;9.184;2023-04-15T09:51:33;4.70;;;1.83;;
9218;SDS011;4644;48.858;9.184;2023-04-15T09:54:01;3.03;;;2.20;;
9218;SDS011;4644;48.858;9.184;2023-04-15T09:56:31;4.07;;;2.80;;
9218;SDS011;4644;48.858;9.184;2023-04-15T09:59:00;3.07;;;2.33;;
9218;SDS011;4644;48.858;9.184;2023-04-15T10:01:28;3.03;;;2.53;;
9218;SDS011;4644;48.858;9.184;2023-04-15T10:03:56;5.47;;;2.47;;
9218;SDS011;4644;48.858;9.184;2023-04-15T10:06:24;3.80;;;2.60;;
9218;SDS011;4644;48.858;9.184;2023-04-15T10:08:52;3.67;;;2.30;;
9218;SDS011;4644;48.858;9.184;2023-04-15T10:11:20;2.80;;;2.10;;
9218;SDS011;4644;48.858;9.184;2023-04-15T10:13:49;5.07;;;2.30;;
9218;SDS011;4644;48.858;9.184;2023-04-15T10:16:18;3.37;;;2.53;;
9218;SDS011;4644;48.858;9.184;2023-04-15T10:18:50;3.17;;;2.20;;
9218;SDS011;4644;48.858;9.184;2023-04-15T10:21:21;6.53;;;2.50;;
9218;SDS011;4644;48.858;9.184;2023-04-15T10:23:48;2.90;;;2.03;;
9218;SDS011;4644;48.858;9.184;2023-04-15T10:26:15;5.13;;;2.47;;
9218;SDS011;4644;48.858;9.184;2023-04-15T10:28:42;3.47;;;2.37;;
9218;SDS011;4644;48.858;9.184;2023-04-15T10:31:11;5.73;;;2.23;;
9218;SDS011;4644;48.858;9.184;2023-04-15T10:33:39;4.03;;;2.10;;
9218;SDS011;4644;48.858;9.184;2023-04-15T10:36:09;4.30;;;2.07;;
9218;SDS011;4644;48.858;9.184;2023-04-15T10:38:38;7.57;;;2.70;;
9218;SDS011;4644;48.858;9.184;2023-04-15T10:41:13;3.90;;;2.30;;
9218;SDS011;4644;48.858;9.184;2023-04-15T10:43:45;3.13;;;2.60;;
9218;SDS011;4644;48.858;9.184;2023-04-15T10:46:23;3.17;;;2.63;;
9218;SDS011;4644;48.858;9.184;2023-04-15T10:49:05;3.73;;;2.87;;
9218;SDS011;4644;48.858;9.184;2023-04-15T10:51:36;3.70;;;2.17;;
9218;SDS011;4644;48.858;9.184;2023-04-15T10:54:07;3.53;;;2.50;;
9218;SDS011;4644;48.858;9.184;2023-04-15T10:56:40;4.23;;;2.50;;
9218;SDS011;4644;48.858;9.184;2023-04-15T10:59:07;4.97;;;2.60;;
9218;SDS011;4644;48.858;9.184;2023-04-15T11:01:50;5.80;;;3.20;;
9218;SDS011;4644;48.858;9.184;2023-04-15T11:07:35;3.63;;;2.60;;
9218;SDS011;4644;48.858;9.184;2023-04-15T11:10:49;5.57;;;2.83;;
9218;SDS011;4644;48.858;9.184;2023-04-15T11:13:21;4.80;;;3.03;;
9218;SDS011;4644;48.858;9.184;2023-04-15T11:15:57;3.93;;;2.83;;
9218;SDS011;4644;48.858;9.184;2023-04-15T11:18:26;6.90;;;3.10;;
9218;SDS011;4644;48.858;9.184;2023-04-15T11:20:56;4.43;;;2.93;;
9218;SDS011;4644;48.858;9.184;2023-04-15T11:23:29;3.53;;;2.27;;
9218;SDS011;4644;48.858;9.184;2023-04-15T11:25:58;5.20;;;2.87;;
9218;SDS011;4644;48.858;9.184;2023-04-15T11:28:26;3.30;;;2.33;;
9218;SDS011;4644;48.858;9.184;2023-04-15T11:30:55;2.67;;;2.17;;
9218;SDS011;4644;48.858;9.184;2023-04-15T11:33:23;4.50;;;2.50;;
9218;SDS011;4644;48.858;9.184;2023-04-15T11:35:51;4.90;;;3.00;;
9218;SDS011;4644;48.858;9.184;2023-04-15T11:38:19;3.90;;;2.90;;
9218;SDS011;4644;48.858;9.184;2023-04-15T11:40:49;3.97;;;2.90;;
9218;SDS011;4644;48.858;9.184;2023-04-15T11:43:17;4.43;;;3.13;;
9218;SDS011;4644;48.858;9.184;2023-04-15T11:45:48;3.97;;;2.70;;
9218;SDS011;4644;48.858;9.184;2023-04-15T11:48:17;2.80;;;2.60;;
9218;SDS011;4644;48.858;9.184;2023-04-15T11:50:45;4.00;;;2.57;;
9218;SDS011;4644;48.858;9.184;2023-04-15T11:53:18;3.07;;;2.57;;
9218;SDS011;4644;48.858;9.184;2023-04-15T11:55:46;4.70;;;2.40;;
9218;SDS011;4644;48.858;9.184;2023-04-15T11:58:16;3.53;;;2.17;;
9218;SDS011;4644;48.858;9.184;2023-04-15T12:00:48;2.93;;;2.20;;
9218;SDS011;4644;48.858;9.184;2023-04-15T12:03:22;4.17;;;2.57;;
9218;SDS011;4644;48.858;9.184;2023-04-15T12:08:57;5.37;;;2.40;;
9218;SDS011;4644;48.858;9.184;2023-04-15T12:11:29;7.07;;;2.70;;
9218;SDS011;4644;48.858;9.184;2023-04-15T12:14:20;4.33;;;2.90;;
9218;SDS011;4644;48.858;9.184;2023-04-15T12:16:50;3.37;;;2.50;;
9218;SDS011;4644;48.858;9.184;2023-04-15T12:19:21;6.40;;;2.87;;
9218;SDS011;4644;48.858;9.184;2023-04-15T12:21:51;3.80;;;2.63;;
9218;SDS011;4644;48.858;9.184;2023-04-15T12:24:19;4.47;;;3.03;;
9218;SDS011;4644;48.858;9.184;2023-04-15T12:26:49;5.03;;;3.70;;
9218;SDS011;4644;48.858;9.184;2023-04-15T12:29:17;4.77;;;3.50;;
9218;SDS011;4644;48.858;9.184;2023-04-15T12:31:46;4.27;;;3.10;;
9218;SDS011;4644;48.858;9.184;2023-04-15T12:34:15;3.83;;;3.23;;
9218;SDS011;4644;48.858;9.184;2023-04-15T12:36:43;6.83;;;2.83;;
9218;SDS011;4644;48.858;9.184;2023-04-15T12:39:10;3.67;;;3.30;;
9218;SDS011;4644;48.858;9.184;2023-04-15T12:41:37;4.40;;;3.13;;
9218;SDS011;4644;48.858;9.184;2023-04-15T12:44:05;4.43;;;2.87;;
9218;SDS011;4644;48.858;9.184;2023-04-15T12:46:32;3.50;;;3.03;;
9218;SDS011;4644;48.858;9.184;2023-04-15T12:49:00;3.67;;;2.83;;
9218;SDS011;4644;48.858;9.184;2023-04-15T12:51:27;4.57;;;3.20;;
9218;SDS011;4644;48.858;9.184;2023-04-15T12:53:55;4.53;;;2.90;;
9218;SDS011;4644;48.858;9.184;2023-04-15T12:56:22;4.67;;;3.27;;
9218;SDS011;4644;48.858;9.184;2023-04-15T12:58:50;3.23;;;2.83;;
9218;SDS011;4644;48.858;9.184;2023-04-15T13:01:18;4.73;;;2.53;;
9218;SDS011;4644;48.858;9.184;2023-04-15T13:03:45;3.07;;;2.00;;
9218;SDS011;4644;48.858;9.184;2023-04-15T13:06:14;3.83;;;2.73;;
9218;SDS011;4644;48.858;9.184;2023-04-15T13:08:41;3.17;;;2.40;;
9218;SDS011;4644;48.858;9.184;2023-04-15T13:11:08;2.37;;;2.17;;
9218;SDS011;4644;48.858;9.184;2023-04-15T13:13:36;4.17;;;2.20;;
9218;SDS011;4644;48.858;9.184;2023-04-15T13:16:03;3.60;;;2.50;;
9218;SDS011;4644;48.858;9.184;2023-04-15T13:18:32;2.67;;;2.00;;
9218;SDS011;4644;48.858;9.184;2023-04-15T13:20:59;5.97;;;2.00;;
9218;SDS011;4644;48.858;9.184;2023-04-15T13:23:27;2.83;;;2.27;;
9218;SDS011;4644;48.858;9.184;2023-04-15T13:25:54;2.67;;;2.10;;
9218;SDS011;4644;48.858;9.184;2023-04-15T13:28:21;4.90;;;1.57;;
9218;SDS011;4644;48.858;9.184;2023-04-15T13:30:48;3.10;;;1.40;;
9218;SDS011;4644;48.858;9.184;2023-04-15T13:33:15;2.17;;;1.40;;
9218;SDS011;4644;48.858;9.184;2023-04-15T13:35:44;1.30;;;1.20;;
9218;SDS011;4644;48.858;9.184;2023-04-15T13:38:11;3.07;;;1.40;;
9218;SDS011;4644;48.858;9.184;2023-04-15T13:40:38;2.00;;;0.87;;
9218;SDS011;4644;48.858;9.184;2023-04-15T13:43:05;1.37;;;1.00;;
9218;SDS011;4644;48.858;9.184;2023-04-15T13:45:32;1.00;;;1.00;;
9218;SDS011;4644;48.858;9.184;2023-04-15T13:47:59;0.90;;;0.90;;
9218;SDS011;4644;48.858;9.184;2023-04-15T13:50:26;0.90;;;0.90;;
9218;SDS011;4644;48.858;9.184;2023-04-15T13:52:55;3.80;;;1.03;;
9218;SDS011;4644;48.858;9.184;2023-04-15T13:55:22;1.10;;;1.00;;
9218;SDS011;4644;48.858;9.184;2023-04-15T13:57:49;0.80;;;0.80;;
9218;SDS011;4644;48.858;9.184;2023-04-15T14:00:16;1.97;;;1.27;;
9218;SDS011;4644;48.858;9.184;2023-04-15T14:02:43;1.43;;;0.90;;
9218;SDS011;4644;48.858;9.184;2023-04-15T14:05:11;1.60;;;1.20;;
9218;SDS011;4644;48.858;9.184;2023-04-15T14:07:38;0.87;;;0.87;;
9218;SDS011;4644;48.858;9.184;2023-04-15T14:10:06;1.10;;;0.90;;
9218;SDS011;4644;48.858;9.184;2023-04-15T14:12:34;1.07;;;0.90;;
9218;SDS011;4644;48.858;9.184;2023-04-15T14:15:01;2.23;;;0.93;;
9218;SDS011;4644;48.858;9.184;2023-04-15T14:17:28;2.53;;;0.87;;
9218;SDS011;4644;48.858;9.184;2023-04-15T14:19:55;1.07;;;0.97;;
9218;SDS011;4644;48.858;9.184;2023-04-15T14:22:22;1.33;;;1.10;;
9218;SDS011;4644;48.858;9.184;2023-04-15T14:24:49;3.53;;;1.00;;
9218;SDS011;4644;48.858;9.184;2023-04-15T14:27:20;1.40;;;0.90;;
9218;SDS011;4644;48.858;9.184;2023-04-15T14:29:47;1.50;;;1.40;;
9218;SDS011;4644;48.858;9.184;2023-04-15T14:32:14;1.50;;;1.27;;
9218;SDS011;4644;48.858;9.184;2023-04-15T14:34:41;3.37;;;1.60;;
9218;SDS011;4644;48.858;9.184;2023-04-15T14:37:08;1.53;;;1.13;;
9218;SDS011;4644;48.858;9.184;2023-04-15T14:39:35;1.87;;;1.30;;
9218;SDS011;4644;48.858;9.184;2023-04-15T14:42:02;1.40;;;1.30;;
9218;SDS011;4644;48.858;9.184;2023-04-15T14:44:31;1.17;;;1.07;;
9218;SDS011;4644;48.858;9.184;2023-04-15T14:46:58;1.33;;;1.10;;
9218;SDS011;4644;48.858;9.184;2023-04-15T14:49:25;2.30;;;1.20;;
9218;SDS011;4644;48.858;9.184;2023-04-15T14:51:52;1.23;;;0.90;;
9218;SDS011;4644;48.858;9.184;2023-04-15T14:54:19;1.10;;;1.10;;
9218;SDS011;4644;48.858;9.184;2023-04-15T14:56:46;1.27;;;1.10;;
9218;SDS011;4644;48.858;9.184;2023-04-15T14:59:13;1.43;;;1.30;;
9218;SDS011;4644;48.858;9.184;2023-04-15T15:01:42;1.43;;;1.33;;
9218;SDS011;4644;48.858;9.184;2023-04-15T15:04:09;2.67;;;1.33;;
9218;SDS011;4644;48.858;9.184;2023-04-15T15:06:37;3.70;;;1.10;;
9218;SDS011;4644;48.858;9.184;2023-04-15T15:09:04;3.30;;;1.37;;
9218;SDS011;4644;48.858;9.184;2023-04-15T15:11:32;1.27;;;1.13;;
9218;SDS011;4644;48.858;9.184;2023-04-15T15:13:59;1.67;;;1.20;;
9218;SDS011;4644;48.858;9.184;2023-04-15T15:16:26;1.20;;;1.20;;
9218;SDS011;4644;48.858;9.184;2023-04-15T15:18:55;1.07;;;1.07;;
9218;SDS011;4644;48.858;9.184;2023-04-15T15:21:22;2.37;;;1.60;;
9218;SDS011;4644;48.858;9.184;2023-04-15T15:23:49;1.50;;;1.40;;
9218;SDS011;4644;48.858;9.184;2023-04-15T15:26:23;2.63;;;1.40;;
9218;SDS011;4644;48.858;9.184;2023-04-15T15:28:52;1.67;;;1.17;;